sensor_id;sensor_type;location;lat;lon;timestamp;P1;durP1;ratioP1;P2;durP2;ratioP2
41705;SDS011;27385;51.096;17.190;2023-08-06T00:01:05;3.10;;;0.90;;
41705;SDS011;27385;51.096;17.190;2023-08-06T00:03:56;3.00;;;0.60;;
41705;SDS011;27385;51.096;17.190;2023-08-06T00:06:29;2.40;;;0.70;;
41705;SDS011;27385;51.096;17.190;2023-08-06T00:09:00;1.40;;;0.50;;
41705;SDS011;27385;51.096;17.190;2023-08-06T00:11:31;2.30;;;0.60;;
41705;SDS011;27385;51.096;17.190;2023-08-06T00:14:02;2.30;;;0.60;;
41705;SDS011;27385;51.096;17.190;2023-08-06T00:16:33;1.10;;;0.30;;
41705;SDS011;27385;51.096;17.190;2023-08-06T00:19:03;2.90;;;0.40;;
41705;SDS011;27385;51.096;17.190;2023-08-06T00:21:34;3.60;;;0.60;;
41705;SDS011;27385;51.096;17.190;2023-08-06T00:24:05;3.80;;;0.60;;
41705;SDS011;27385;51.096;17.190;2023-08-06T00:26:35;1.70;;;0.40;;
41705;SDS011;27385;51.096;17.190;2023-08-06T00:29:06;1.60;;;0.50;;
41705;SDS011;27385;51.096;17.190;2023-08-06T00:31:37;2.20;;;0.50;;
41705;SDS011;27385;51.096;17.190;2023-08-06T00:34:07;5.40;;;0.50;;
41705;SDS011;27385;51.096;17.190;2023-08-06T00:36:38;1.60;;;0.50;;
41705;SDS011;27385;51.096;17.190;2023-08-06T00:39:09;2.70;;;0.60;;
41705;SDS011;27385;51.096;17.190;2023-08-06T00:41:40;1.20;;;0.50;;
41705;SDS011;27385;51.096;17.190;2023-08-06T00:44:11;2.70;;;0.40;;
41705;SDS011;27385;51.096;17.190;2023-08-06T00:46:42;1.60;;;0.50;;
41705;SDS011;27385;51.096;17.190;2023-08-06T00:49:13;2.20;;;0.40;;
41705;SDS011;27385;51.096;17.190;2023-08-06T00:51:45;3.70;;;0.40;;
41705;SDS011;27385;51.096;17.190;2023-08-06T00:54:17;1.20;;;0.40;;
41705;SDS011;27385;51.096;17.190;2023-08-06T00:56:48;1.80;;;0.40;;
41705;SDS011;27385;51.096;17.190;2023-08-06T00:59:19;3.40;;;0.70;;
41705;SDS011;27385;51.096;17.190;2023-08-06T01:01:50;2.30;;;0.30;;
41705;SDS011;27385;51.096;17.190;2023-08-06T01:04:21;3.30;;;0.50;;
41705;SDS011;27385;51.096;17.190;2023-08-06T01:07:06;1.70;;;0.50;;
41705;SDS011;27385;51.096;17.190;2023-08-06T01:09:50;1.20;;;0.30;;
41705;SDS011;27385;51.096;17.190;2023-08-06T01:12:32;2.20;;;0.30;;
41705;SDS011;27385;51.096;17.190;2023-08-06T01:15:13;0.80;;;0.20;;
41705;SDS011;27385;51.096;17.190;2023-08-06T01:17:48;1.70;;;0.40;;
41705;SDS011;27385;51.096;17.190;2023-08-06T01:20:19;1.50;;;0.30;;
41705;SDS011;27385;51.096;17.190;2023-08-06T01:22:50;2.10;;;0.40;;
41705;SDS011;27385;51.096;17.190;2023-08-06T01:25:21;2.10;;;0.40;;
41705;SDS011;27385;51.096;17.190;2023-08-06T01:28:01;0.60;;;0.30;;
41705;SDS011;27385;51.096;17.190;2023-08-06T01:30:39;2.70;;;0.30;;
41705;SDS011;27385;51.096;17.190;2023-08-06T01:33:14;1.80;;;0.40;;
41705;SDS011;27385;51.096;17.190;2023-08-06T01:35:48;1.40;;;0.40;;
41705;SDS011;27385;51.096;17.190;2023-08-06T01:38:22;1.70;;;0.40;;
41705;SDS011;27385;51.096;17.190;2023-08-06T01:40:55;2.20;;;0.30;;
41705;SDS011;27385;51.096;17.190;2023-08-06T01:43:26;1.40;;;0.30;;
41705;SDS011;27385;51.096;17.190;2023-08-06T01:45:57;1.30;;;0.30;;
41705;SDS011;27385;51.096;17.190;2023-08-06T01:48:28;3.70;;;0.30;;
41705;SDS011;27385;51.096;17.190;2023-08-06T01:50:59;1.00;;;0.20;;
41705;SDS011;27385;51.096;17.190;2023-08-06T01:53:29;1.10;;;0.30;;
41705;SDS011;27385;51.096;17.190;2023-08-06T01:56:00;1.80;;;0.30;;
41705;SDS011;27385;51.096;17.190;2023-08-06T01:58:31;2.20;;;0.20;;
41705;SDS011;27385;51.096;17.190;2023-08-06T02:01:02;1.30;;;0.10;;
41705;SDS011;27385;51.096;17.190;2023-08-06T02:03:32;3.20;;;0.30;;
41705;SDS011;27385;51.096;17.190;2023-08-06T02:06:04;1.20;;;0.20;;
41705;SDS011;27385;51.096;17.190;2023-08-06T02:08:35;0.80;;;0.20;;
41705;SDS011;27385;51.096;17.190;2023-08-06T02:11:06;1.00;;;0.20;;
41705;SDS011;27385;51.096;17.190;2023-08-06T02:13:37;1.00;;;0.20;;
41705;SDS011;27385;51.096;17.190;2023-08-06T02:16:08;1.80;;;0.30;;
41705;SDS011;27385;51.096;17.190;2023-08-06T02:18:39;1.40;;;0.20;;
41705;SDS011;27385;51.096;17.190;2023-08-06T02:21:09;1.40;;;0.60;;
41705;SDS011;27385;51.096;17.190;2023-08-06T02:23:40;0.60;;;0.20;;
41705;SDS011;27385;51.096;17.190;2023-08-06T02:26:11;0.60;;;0.20;;
41705;SDS011;27385;51.096;17.190;2023-08-06T02:28:41;1.60;;;0.10;;
41705;SDS011;27385;51.096;17.190;2023-08-06T02:31:12;0.60;;;0.20;;
41705;SDS011;27385;51.096;17.190;2023-08-06T02:33:43;3.10;;;0.30;;
41705;SDS011;27385;51.096;17.190;2023-08-06T02:36:13;1.00;;;0.20;;
41705;SDS011;27385;51.096;17.190;2023-08-06T02:38:44;1.30;;;0.30;;
41705;SDS011;27385;51.096;17.190;2023-08-06T02:41:15;0.70;;;0.20;;
41705;SDS011;27385;51.096;17.190;2023-08-06T02:43:46;1.00;;;0.30;;
41705;SDS011;27385;51.096;17.190;2023-08-06T02:46:16;0.40;;;0.20;;
41705;SDS011;27385;51.096;17.190;2023-08-06T02:48:48;0.70;;;0.20;;
41705;SDS011;27385;51.096;17.190;2023-08-06T02:51:18;0.40;;;0.10;;
41705;SDS011;27385;51.096;17.190;2023-08-06T02:53:49;5.70;;;0.30;;
41705;SDS011;27385;51.096;17.190;2023-08-06T02:56:20;1.10;;;0.10;;
41705;SDS011;27385;51.096;17.190;2023-08-06T02:58:50;2.00;;;0.20;;
41705;SDS011;27385;51.096;17.190;2023-08-06T03:01:21;1.10;;;0.10;;
41705;SDS011;27385;51.096;17.190;2023-08-06T03:03:54;1.30;;;0.30;;
41705;SDS011;27385;51.096;17.190;2023-08-06T03:06:25;1.40;;;0.10;;
41705;SDS011;27385;51.096;17.190;2023-08-06T03:08:56;1.30;;;0.10;;
41705;SDS011;27385;51.096;17.190;2023-08-06T03:11:27;1.10;;;0.20;;
41705;SDS011;27385;51.096;17.190;2023-08-06T03:13:58;0.60;;;0.10;;
41705;SDS011;27385;51.096;17.190;2023-08-06T03:16:29;1.50;;;0.30;;
41705;SDS011;27385;51.096;17.190;2023-08-06T03:18:59;0.80;;;0.20;;
41705;SDS011;27385;51.096;17.190;2023-08-06T03:21:30;0.60;;;0.20;;
41705;SDS011;27385;51.096;17.190;2023-08-06T03:24:01;0.90;;;0.10;;
41705;SDS011;27385;51.096;17.190;2023-08-06T03:26:32;0.60;;;0.10;;
41705;SDS011;27385;51.096;17.190;2023-08-06T03:29:02;1.90;;;0.10;;
41705;SDS011;27385;51.096;17.190;2023-08-06T03:31:33;0.20;;;0.10;;
41705;SDS011;27385;51.096;17.190;2023-08-06T03:34:04;0.40;;;0.10;;
41705;SDS011;27385;51.096;17.190;2023-08-06T03:36:35;1.20;;;0.40;;
41705;SDS011;27385;51.096;17.190;2023-08-06T03:39:05;0.50;;;0.00;;
41705;SDS011;27385;51.096;17.190;2023-08-06T03:41:36;0.60;;;0.10;;
41705;SDS011;27385;51.096;17.190;2023-08-06T03:44:07;0.60;;;0.10;;
41705;SDS011;27385;51.096;17.190;2023-08-06T03:46:37;0.70;;;0.00;;
41705;SDS011;27385;51.096;17.190;2023-08-06T03:49:08;0.60;;;0.10;;
41705;SDS011;27385;51.096;17.190;2023-08-06T03:51:39;0.10;;;0.00;;
41705;SDS011;27385;51.096;17.190;2023-08-06T03:54:10;0.20;;;0.00;;
41705;SDS011;27385;51.096;17.190;2023-08-06T03:56:40;0.70;;;0.00;;
41705;SDS011;27385;51.096;17.190;2023-08-06T03:59:11;0.30;;;0.00;;
41705;SDS011;27385;51.096;17.190;2023-08-06T04:01:42;0.20;;;0.10;;
41705;SDS011;27385;51.096;17.190;2023-08-06T04:04:12;0.60;;;0.00;;
41705;SDS011;27385;51.096;17.190;2023-08-06T04:06:43;0.30;;;0.10;;
41705;SDS011;27385;51.096;17.190;2023-08-06T04:09:14;0.50;;;0.10;;
41705;SDS011;27385;51.096;17.190;2023-08-06T04:11:45;2.00;;;0.30;;
41705;SDS011;27385;51.096;17.190;2023-08-06T04:14:16;1.50;;;0.10;;
41705;SDS011;27385;51.096;17.190;2023-08-06T04:16:46;1.20;;;0.10;;
41705;SDS011;27385;51.096;17.190;2023-08-06T04:19:17;0.40;;;0.10;;
41705;SDS011;27385;51.096;17.190;2023-08-06T04:21:48;0.10;;;0.00;;
41705;SDS011;27385;51.096;17.190;2023-08-06T04:24:18;0.30;;;0.00;;
41705;SDS011;27385;51.096;17.190;2023-08-06T04:26:50;1.40;;;0.00;;
41705;SDS011;27385;51.096;17.190;2023-08-06T04:29:20;0.20;;;0.10;;
41705;SDS011;27385;51.096;17.190;2023-08-06T04:31:51;0.30;;;0.10;;
41705;SDS011;27385;51.096;17.190;2023-08-06T04:34:22;0.40;;;0.00;;
41705;SDS011;27385;51.096;17.190;2023-08-06T04:36:53;0.10;;;0.00;;
41705;SDS011;27385;51.096;17.190;2023-08-06T04:39:24;3.10;;;0.20;;
41705;SDS011;27385;51.096;17.190;2023-08-06T04:41:54;1.00;;;0.10;;
41705;SDS011;27385;51.096;17.190;2023-08-06T04:44:26;0.80;;;0.10;;
41705;SDS011;27385;51.096;17.190;2023-08-06T04:46:56;2.90;;;0.10;;
41705;SDS011;27385;51.096;17.190;2023-08-06T04:49:27;0.20;;;0.00;;
41705;SDS011;27385;51.096;17.190;2023-08-06T04:51:58;0.80;;;0.00;;
41705;SDS011;27385;51.096;17.190;2023-08-06T04:54:29;0.90;;;0.10;;
41705;SDS011;27385;51.096;17.190;2023-08-06T04:57:00;0.30;;;0.00;;
41705;SDS011;27385;51.096;17.190;2023-08-06T04:59:31;0.20;;;0.00;;
41705;SDS011;27385;51.096;17.190;2023-08-06T05:02:02;1.20;;;0.00;;
41705;SDS011;27385;51.096;17.190;2023-08-06T05:04:34;1.20;;;0.00;;
41705;SDS011;27385;51.096;17.190;2023-08-06T05:07:05;0.60;;;0.00;;
41705;SDS011;27385;51.096;17.190;2023-08-06T05:09:35;0.50;;;0.00;;
41705;SDS011;27385;51.096;17.190;2023-08-06T05:12:07;1.30;;;0.10;;
41705;SDS011;27385;51.096;17.190;2023-08-06T05:14:39;1.90;;;0.10;;
41705;SDS011;27385;51.096;17.190;2023-08-06T05:17:10;0.80;;;0.10;;
41705;SDS011;27385;51.096;17.190;2023-08-06T05:19:41;0.30;;;0.00;;
41705;SDS011;27385;51.096;17.190;2023-08-06T05:22:12;0.40;;;0.00;;
41705;SDS011;27385;51.096;17.190;2023-08-06T05:24:42;0.80;;;0.00;;
41705;SDS011;27385;51.096;17.190;2023-08-06T05:27:14;1.00;;;0.10;;
41705;SDS011;27385;51.096;17.190;2023-08-06T05:29:47;0.80;;;0.20;;
41705;SDS011;27385;51.096;17.190;2023-08-06T05:32:19;0.40;;;0.10;;
41705;SDS011;27385;51.096;17.190;2023-08-06T05:34:50;0.90;;;0.10;;
41705;SDS011;27385;51.096;17.190;2023-08-06T05:37:21;0.20;;;0.00;;
41705;SDS011;27385;51.096;17.190;2023-08-06T05:39:52;2.10;;;0.10;;
41705;SDS011;27385;51.096;17.190;2023-08-06T05:42:23;0.40;;;0.10;;
41705;SDS011;27385;51.096;17.190;2023-08-06T05:44:54;0.40;;;0.00;;
41705;SDS011;27385;51.096;17.190;2023-08-06T05:47:24;0.00;;;0.00;;
41705;SDS011;27385;51.096;17.190;2023-08-06T05:49:55;0.60;;;0.10;;
41705;SDS011;27385;51.096;17.190;2023-08-06T05:52:26;0.30;;;0.00;;
41705;SDS011;27385;51.096;17.190;2023-08-06T05:54:57;0.80;;;0.10;;
41705;SDS011;27385;51.096;17.190;2023-08-06T05:57:28;0.30;;;0.00;;
41705;SDS011;27385;51.096;17.190;2023-08-06T05:59:59;2.00;;;0.10;;
41705;SDS011;27385;51.096;17.190;2023-08-06T06:02:30;0.80;;;0.00;;
41705;SDS011;27385;51.096;17.190;2023-08-06T06:05:01;0.30;;;0.00;;
41705;SDS011;27385;51.096;17.190;2023-08-06T06:07:32;1.60;;;0.00;;
41705;SDS011;27385;51.096;17.190;2023-08-06T06:10:03;0.10;;;0.00;;
41705;SDS011;27385;51.096;17.190;2023-08-06T06:12:35;1.10;;;0.00;;
41705;SDS011;27385;51.096;17.190;2023-08-06T06:15:08;0.40;;;0.00;;
41705;SDS011;27385;51.096;17.190;2023-08-06T06:17:39;1.00;;;0.10;;
41705;SDS011;27385;51.096;17.190;2023-08-06T06:20:10;1.30;;;0.00;;
41705;SDS011;27385;51.096;17.190;2023-08-06T06:22:41;0.40;;;0.00;;
41705;SDS011;27385;51.096;17.190;2023-08-06T06:25:12;0.40;;;0.00;;
41705;SDS011;27385;51.096;17.190;2023-08-06T06:27:42;0.10;;;0.00;;
41705;SDS011;27385;51.096;17.190;2023-08-06T06:30:13;1.10;;;0.10;;
41705;SDS011;27385;51.096;17.190;2023-08-06T06:32:44;1.50;;;0.10;;
41705;SDS011;27385;51.096;17.190;2023-08-06T06:35:15;0.40;;;0.10;;
41705;SDS011;27385;51.096;17.190;2023-08-06T06:37:46;0.30;;;0.00;;
41705;SDS011;27385;51.096;17.190;2023-08-06T06:40:17;0.00;;;0.00;;
41705;SDS011;27385;51.096;17.190;2023-08-06T06:42:47;0.10;;;0.00;;
41705;SDS011;27385;51.096;17.190;2023-08-06T06:45:19;0.70;;;0.00;;
41705;SDS011;27385;51.096;17.190;2023-08-06T06:47:49;0.80;;;0.00;;
41705;SDS011;27385;51.096;17.190;2023-08-06T06:50:20;0.40;;;0.10;;
41705;SDS011;27385;51.096;17.190;2023-08-06T06:52:51;0.70;;;0.00;;
41705;SDS011;27385;51.096;17.190;2023-08-06T06:55:22;0.60;;;0.00;;
41705;SDS011;27385;51.096;17.190;2023-08-06T06:57:53;1.10;;;0.00;;
41705;SDS011;27385;51.096;17.190;2023-08-06T07:00:26;0.20;;;0.00;;
41705;SDS011;27385;51.096;17.190;2023-08-06T07:02:56;0.60;;;0.00;;
41705;SDS011;27385;51.096;17.190;2023-08-06T07:05:27;0.80;;;0.00;;
41705;SDS011;27385;51.096;17.190;2023-08-06T07:07:58;1.00;;;0.00;;
41705;SDS011;27385;51.096;17.190;2023-08-06T07:10:29;2.20;;;0.20;;
41705;SDS011;27385;51.096;17.190;2023-08-06T07:13:00;0.30;;;0.00;;
41705;SDS011;27385;51.096;17.190;2023-08-06T07:15:30;0.00;;;0.00;;
41705;SDS011;27385;51.096;17.190;2023-08-06T07:18:01;0.10;;;0.00;;
41705;SDS011;27385;51.096;17.190;2023-08-06T07:20:32;0.50;;;0.10;;
41705;SDS011;27385;51.096;17.190;2023-08-06T07:23:02;1.50;;;0.30;;
41705;SDS011;27385;51.096;17.190;2023-08-06T07:25:33;1.00;;;0.00;;
41705;SDS011;27385;51.096;17.190;2023-08-06T07:28:04;0.40;;;0.00;;
41705;SDS011;27385;51.096;17.190;2023-08-06T07:30:35;0.10;;;0.00;;
41705;SDS011;27385;51.096;17.190;2023-08-06T07:33:08;0.20;;;0.00;;
41705;SDS011;27385;51.096;17.190;2023-08-06T07:35:39;0.70;;;0.00;;
41705;SDS011;27385;51.096;17.190;2023-08-06T07:38:11;1.60;;;0.00;;
41705;SDS011;27385;51.096;17.190;2023-08-06T07:40:42;0.20;;;0.10;;
41705;SDS011;27385;51.096;17.190;2023-08-06T07:43:13;1.30;;;0.00;;
41705;SDS011;27385;51.096;17.190;2023-08-06T07:45:44;0.30;;;0.10;;
41705;SDS011;27385;51.096;17.190;2023-08-06T07:48:15;0.60;;;0.00;;
41705;SDS011;27385;51.096;17.190;2023-08-06T07:50:45;0.10;;;0.00;;
41705;SDS011;27385;51.096;17.190;2023-08-06T07:53:21;0.40;;;0.00;;
41705;SDS011;27385;51.096;17.190;2023-08-06T07:55:54;1.00;;;0.00;;
41705;SDS011;27385;51.096;17.190;2023-08-06T07:58:25;0.80;;;0.00;;
41705;SDS011;27385;51.096;17.190;2023-08-06T08:00:57;0.30;;;0.10;;
41705;SDS011;27385;51.096;17.190;2023-08-06T08:03:28;0.90;;;0.10;;
41705;SDS011;27385;51.096;17.190;2023-08-06T08:05:59;0.60;;;0.00;;
41705;SDS011;27385;51.096;17.190;2023-08-06T08:08:29;0.40;;;0.00;;
41705;SDS011;27385;51.096;17.190;2023-08-06T08:11:00;2.40;;;0.10;;
41705;SDS011;27385;51.096;17.190;2023-08-06T08:13:32;0.60;;;0.10;;
41705;SDS011;27385;51.096;17.190;2023-08-06T08:16:03;0.10;;;0.00;;
41705;SDS011;27385;51.096;17.190;2023-08-06T08:18:34;0.10;;;0.00;;
41705;SDS011;27385;51.096;17.190;2023-08-06T08:21:05;0.80;;;0.10;;
41705;SDS011;27385;51.096;17.190;2023-08-06T08:23:36;0.10;;;0.00;;
41705;SDS011;27385;51.096;17.190;2023-08-06T08:26:07;0.00;;;0.00;;
41705;SDS011;27385;51.096;17.190;2023-08-06T08:28:37;0.50;;;0.10;;
41705;SDS011;27385;51.096;17.190;2023-08-06T08:31:09;0.50;;;0.10;;
41705;SDS011;27385;51.096;17.190;2023-08-06T08:33:40;0.70;;;0.20;;
41705;SDS011;27385;51.096;17.190;2023-08-06T08:36:11;0.70;;;0.10;;
41705;SDS011;27385;51.096;17.190;2023-08-06T08:38:42;2.30;;;0.20;;
41705;SDS011;27385;51.096;17.190;2023-08-06T08:41:13;1.00;;;0.20;;
41705;SDS011;27385;51.096;17.190;2023-08-06T08:43:44;0.30;;;0.10;;
41705;SDS011;27385;51.096;17.190;2023-08-06T08:46:16;1.00;;;0.30;;
41705;SDS011;27385;51.096;17.190;2023-08-06T08:48:48;0.90;;;0.20;;
41705;SDS011;27385;51.096;17.190;2023-08-06T08:51:19;0.70;;;0.30;;
41705;SDS011;27385;51.096;17.190;2023-08-06T08:53:49;1.10;;;0.30;;
41705;SDS011;27385;51.096;17.190;2023-08-06T08:56:23;0.80;;;0.40;;
41705;SDS011;27385;51.096;17.190;2023-08-06T08:58:54;2.20;;;0.40;;
41705;SDS011;27385;51.096;17.190;2023-08-06T09:01:25;1.10;;;0.40;;
41705;SDS011;27385;51.096;17.190;2023-08-06T09:03:57;1.30;;;0.40;;
41705;SDS011;27385;51.096;17.190;2023-08-06T09:06:28;1.10;;;0.30;;
41705;SDS011;27385;51.096;17.190;2023-08-06T09:09:04;1.20;;;0.50;;
41705;SDS011;27385;51.096;17.190;2023-08-06T09:11:39;0.60;;;0.30;;
41705;SDS011;27385;51.096;17.190;2023-08-06T09:14:16;1.30;;;0.40;;
41705;SDS011;27385;51.096;17.190;2023-08-06T09:16:48;0.70;;;0.30;;
41705;SDS011;27385;51.096;17.190;2023-08-06T09:19:20;1.80;;;0.30;;
41705;SDS011;27385;51.096;17.190;2023-08-06T09:21:52;0.30;;;0.20;;
41705;SDS011;27385;51.096;17.190;2023-08-06T09:24:27;0.50;;;0.20;;
41705;SDS011;27385;51.096;17.190;2023-08-06T09:27:04;1.50;;;0.30;;
41705;SDS011;27385;51.096;17.190;2023-08-06T09:29:43;0.50;;;0.20;;
41705;SDS011;27385;51.096;17.190;2023-08-06T09:32:19;0.40;;;0.10;;
41705;SDS011;27385;51.096;17.190;2023-08-06T09:34:54;0.70;;;0.10;;
41705;SDS011;27385;51.096;17.190;2023-08-06T09:37:27;0.40;;;0.10;;
41705;SDS011;27385;51.096;17.190;2023-08-06T09:40:19;0.30;;;0.10;;
41705;SDS011;27385;51.096;17.190;2023-08-06T09:43:01;0.40;;;0.10;;
41705;SDS011;27385;51.096;17.190;2023-08-06T09:45:33;0.70;;;0.10;;
41705;SDS011;27385;51.096;17.190;2023-08-06T09:48:05;0.70;;;0.20;;
41705;SDS011;27385;51.096;17.190;2023-08-06T09:50:38;0.30;;;0.10;;
41705;SDS011;27385;51.096;17.190;2023-08-06T09:53:09;0.30;;;0.10;;
41705;SDS011;27385;51.096;17.190;2023-08-06T09:55:40;0.80;;;0.10;;
41705;SDS011;27385;51.096;17.190;2023-08-06T09:58:11;0.20;;;0.10;;
41705;SDS011;27385;51.096;17.190;2023-08-06T10:00:43;3.60;;;0.10;;
41705;SDS011;27385;51.096;17.190;2023-08-06T10:03:14;0.60;;;0.10;;
41705;SDS011;27385;51.096;17.190;2023-08-06T10:05:45;3.00;;;0.20;;
41705;SDS011;27385;51.096;17.190;2023-08-06T10:08:18;3.00;;;0.30;;
41705;SDS011;27385;51.096;17.190;2023-08-06T10:10:49;1.00;;;0.20;;
41705;SDS011;27385;51.096;17.190;2023-08-06T10:13:21;1.20;;;0.10;;
41705;SDS011;27385;51.096;17.190;2023-08-06T10:15:52;1.40;;;0.20;;
41705;SDS011;27385;51.096;17.190;2023-08-06T10:18:24;1.00;;;0.20;;
41705;SDS011;27385;51.096;17.190;2023-08-06T10:20:56;0.60;;;0.10;;
41705;SDS011;27385;51.096;17.190;2023-08-06T10:23:34;0.90;;;0.20;;
41705;SDS011;27385;51.096;17.190;2023-08-06T10:26:07;0.70;;;0.20;;
41705;SDS011;27385;51.096;17.190;2023-08-06T10:28:39;0.90;;;0.20;;
41705;SDS011;27385;51.096;17.190;2023-08-06T10:31:10;0.90;;;0.20;;
41705;SDS011;27385;51.096;17.190;2023-08-06T10:33:41;0.10;;;0.10;;
41705;SDS011;27385;51.096;17.190;2023-08-06T10:36:14;0.60;;;0.10;;
41705;SDS011;27385;51.096;17.190;2023-08-06T10:38:45;1.30;;;0.10;;
41705;SDS011;27385;51.096;17.190;2023-08-06T10:41:22;0.70;;;0.10;;
41705;SDS011;27385;51.096;17.190;2023-08-06T10:44:07;1.10;;;0.20;;
41705;SDS011;27385;51.096;17.190;2023-08-06T10:46:39;1.00;;;0.20;;
41705;SDS011;27385;51.096;17.190;2023-08-06T10:49:11;1.10;;;0.10;;
41705;SDS011;27385;51.096;17.190;2023-08-06T10:51:46;1.20;;;0.20;;
41705;SDS011;27385;51.096;17.190;2023-08-06T10:54:17;1.40;;;0.10;;
41705;SDS011;27385;51.096;17.190;2023-08-06T10:56:48;1.00;;;0.20;;
41705;SDS011;27385;51.096;17.190;2023-08-06T10:59:20;0.80;;;0.20;;
41705;SDS011;27385;51.096;17.190;2023-08-06T11:01:50;0.90;;;0.20;;
41705;SDS011;27385;51.096;17.190;2023-08-06T11:04:22;2.30;;;0.20;;
41705;SDS011;27385;51.096;17.190;2023-08-06T11:06:54;1.10;;;0.20;;
41705;SDS011;27385;51.096;17.190;2023-08-06T11:09:24;0.80;;;0.10;;
41705;SDS011;27385;51.096;17.190;2023-08-06T11:11:55;1.90;;;0.20;;
41705;SDS011;27385;51.096;17.190;2023-08-06T11:14:26;1.10;;;0.20;;
41705;SDS011;27385;51.096;17.190;2023-08-06T11:16:59;0.50;;;0.20;;
41705;SDS011;27385;51.096;17.190;2023-08-06T11:19:30;1.40;;;0.10;;
41705;SDS011;27385;51.096;17.190;2023-08-06T11:22:01;0.40;;;0.10;;
41705;SDS011;27385;51.096;17.190;2023-08-06T11:24:32;0.60;;;0.10;;
41705;SDS011;27385;51.096;17.190;2023-08-06T11:27:05;1.40;;;0.20;;
41705;SDS011;27385;51.096;17.190;2023-08-06T11:29:42;4.10;;;0.10;;
41705;SDS011;27385;51.096;17.190;2023-08-06T11:32:13;0.60;;;0.10;;
41705;SDS011;27385;51.096;17.190;2023-08-06T11:34:44;0.80;;;0.10;;
41705;SDS011;27385;51.096;17.190;2023-08-06T11:37:15;0.50;;;0.10;;
41705;SDS011;27385;51.096;17.190;2023-08-06T11:39:50;1.10;;;0.00;;
41705;SDS011;27385;51.096;17.190;2023-08-06T11:42:21;0.30;;;0.10;;
41705;SDS011;27385;51.096;17.190;2023-08-06T11:44:53;0.50;;;0.20;;
41705;SDS011;27385;51.096;17.190;2023-08-06T11:47:27;1.20;;;0.20;;
41705;SDS011;27385;51.096;17.190;2023-08-06T11:49:57;0.90;;;0.20;;
41705;SDS011;27385;51.096;17.190;2023-08-06T11:52:29;0.50;;;0.10;;
41705;SDS011;27385;51.096;17.190;2023-08-06T11:55:03;0.20;;;0.00;;
41705;SDS011;27385;51.096;17.190;2023-08-06T11:57:39;0.20;;;0.00;;
41705;SDS011;27385;51.096;17.190;2023-08-06T12:00:14;2.30;;;0.20;;
41705;SDS011;27385;51.096;17.190;2023-08-06T12:02:46;0.30;;;0.10;;
41705;SDS011;27385;51.096;17.190;2023-08-06T12:05:18;0.70;;;0.10;;
41705;SDS011;27385;51.096;17.190;2023-08-06T12:07:52;0.50;;;0.10;;
41705;SDS011;27385;51.096;17.190;2023-08-06T12:10:25;1.10;;;0.10;;
41705;SDS011;27385;51.096;17.190;2023-08-06T12:12:57;0.30;;;0.10;;
41705;SDS011;27385;51.096;17.190;2023-08-06T12:15:28;0.50;;;0.10;;
41705;SDS011;27385;51.096;17.190;2023-08-06T12:17:59;0.60;;;0.10;;
41705;SDS011;27385;51.096;17.190;2023-08-06T12:20:30;0.30;;;0.10;;
41705;SDS011;27385;51.096;17.190;2023-08-06T12:23:01;0.50;;;0.10;;
41705;SDS011;27385;51.096;17.190;2023-08-06T12:25:32;2.00;;;0.20;;
41705;SDS011;27385;51.096;17.190;2023-08-06T12:28:02;1.30;;;0.10;;
41705;SDS011;27385;51.096;17.190;2023-08-06T12:30:35;0.60;;;0.10;;
41705;SDS011;27385;51.096;17.190;2023-08-06T12:33:09;0.80;;;0.10;;
41705;SDS011;27385;51.096;17.190;2023-08-06T12:35:39;1.00;;;0.20;;
41705;SDS011;27385;51.096;17.190;2023-08-06T12:38:10;0.60;;;0.10;;
41705;SDS011;27385;51.096;17.190;2023-08-06T12:40:41;1.00;;;0.10;;
41705;SDS011;27385;51.096;17.190;2023-08-06T12:43:12;0.50;;;0.10;;
41705;SDS011;27385;51.096;17.190;2023-08-06T12:45:43;2.60;;;0.10;;
41705;SDS011;27385;51.096;17.190;2023-08-06T12:48:14;2.60;;;0.20;;
41705;SDS011;27385;51.096;17.190;2023-08-06T12:50:45;1.10;;;0.20;;
41705;SDS011;27385;51.096;17.190;2023-08-06T12:53:17;0.60;;;0.20;;
41705;SDS011;27385;51.096;17.190;2023-08-06T12:55:51;1.00;;;0.10;;
41705;SDS011;27385;51.096;17.190;2023-08-06T12:58:21;0.60;;;0.20;;
41705;SDS011;27385;51.096;17.190;2023-08-06T13:00:52;0.60;;;0.20;;
41705;SDS011;27385;51.096;17.190;2023-08-06T13:03:23;0.90;;;0.30;;
41705;SDS011;27385;51.096;17.190;2023-08-06T13:05:54;1.80;;;0.20;;
41705;SDS011;27385;51.096;17.190;2023-08-06T13:08:25;0.80;;;0.20;;
41705;SDS011;27385;51.096;17.190;2023-08-06T13:10:56;2.60;;;0.20;;
41705;SDS011;27385;51.096;17.190;2023-08-06T13:13:27;1.60;;;0.30;;
41705;SDS011;27385;51.096;17.190;2023-08-06T13:15:58;1.00;;;0.30;;
41705;SDS011;27385;51.096;17.190;2023-08-06T13:18:29;2.90;;;0.30;;
41705;SDS011;27385;51.096;17.190;2023-08-06T13:21:01;2.50;;;0.30;;
41705;SDS011;27385;51.096;17.190;2023-08-06T13:23:32;1.60;;;0.30;;
41705;SDS011;27385;51.096;17.190;2023-08-06T13:26:03;1.50;;;0.30;;
41705;SDS011;27385;51.096;17.190;2023-08-06T13:28:33;1.20;;;0.20;;
41705;SDS011;27385;51.096;17.190;2023-08-06T13:31:04;1.10;;;0.30;;
41705;SDS011;27385;51.096;17.190;2023-08-06T13:33:35;1.80;;;0.30;;
41705;SDS011;27385;51.096;17.190;2023-08-06T13:36:06;1.00;;;0.20;;
41705;SDS011;27385;51.096;17.190;2023-08-06T13:38:37;1.80;;;0.30;;
41705;SDS011;27385;51.096;17.190;2023-08-06T13:41:08;1.60;;;0.40;;
41705;SDS011;27385;51.096;17.190;2023-08-06T13:43:39;1.20;;;0.30;;
41705;SDS011;27385;51.096;17.190;2023-08-06T13:46:10;1.40;;;0.30;;
41705;SDS011;27385;51.096;17.190;2023-08-06T13:48:44;1.60;;;0.30;;
41705;SDS011;27385;51.096;17.190;2023-08-06T13:51:16;1.70;;;0.40;;
41705;SDS011;27385;51.096;17.190;2023-08-06T13:53:47;2.70;;;0.40;;
41705;SDS011;27385;51.096;17.190;2023-08-06T13:56:20;1.20;;;0.40;;
41705;SDS011;27385;51.096;17.190;2023-08-06T13:58:50;2.60;;;0.40;;
41705;SDS011;27385;51.096;17.190;2023-08-06T14:01:21;1.10;;;0.30;;
41705;SDS011;27385;51.096;17.190;2023-08-06T14:03:52;2.30;;;0.40;;
41705;SDS011;27385;51.096;17.190;2023-08-06T14:06:23;1.00;;;0.30;;
41705;SDS011;27385;51.096;17.190;2023-08-06T14:08:53;1.80;;;0.40;;
41705;SDS011;27385;51.096;17.190;2023-08-06T14:11:24;0.60;;;0.20;;
41705;SDS011;27385;51.096;17.190;2023-08-06T14:13:56;0.80;;;0.20;;
41705;SDS011;27385;51.096;17.190;2023-08-06T14:16:27;0.70;;;0.20;;
41705;SDS011;27385;51.096;17.190;2023-08-06T14:18:58;1.40;;;0.20;;
41705;SDS011;27385;51.096;17.190;2023-08-06T14:21:29;0.90;;;0.20;;
41705;SDS011;27385;51.096;17.190;2023-08-06T14:24:00;0.30;;;0.00;;
41705;SDS011;27385;51.096;17.190;2023-08-06T14:26:31;1.40;;;0.20;;
41705;SDS011;27385;51.096;17.190;2023-08-06T14:29:01;0.60;;;0.20;;
41705;SDS011;27385;51.096;17.190;2023-08-06T14:31:32;1.10;;;0.20;;
41705;SDS011;27385;51.096;17.190;2023-08-06T14:34:03;5.20;;;0.30;;
41705;SDS011;27385;51.096;17.190;2023-08-06T14:36:34;1.20;;;0.30;;
41705;SDS011;27385;51.096;17.190;2023-08-06T14:39:13;0.90;;;0.30;;
41705;SDS011;27385;51.096;17.190;2023-08-06T14:41:44;3.40;;;0.30;;
41705;SDS011;27385;51.096;17.190;2023-08-06T14:44:15;4.30;;;0.40;;
41705;SDS011;27385;51.096;17.190;2023-08-06T14:46:47;2.00;;;0.30;;
41705;SDS011;27385;51.096;17.190;2023-08-06T14:49:18;1.10;;;0.30;;
41705;SDS011;27385;51.096;17.190;2023-08-06T14:51:49;1.30;;;0.40;;
41705;SDS011;27385;51.096;17.190;2023-08-06T14:54:20;1.80;;;0.50;;
41705;SDS011;27385;51.096;17.190;2023-08-06T14:56:51;1.00;;;0.30;;
41705;SDS011;27385;51.096;17.190;2023-08-06T14:59:22;2.20;;;0.40;;